Montgomery Creek, California
Current Conditions -  °F | °C
As of 2:53 AM on Tuesday 21 Oct 2014 (Local Time) from KRDD Reporting Station
Clear Clear  
Wind Chill: 49°   Ceiling: Unl
Heat Index: 49°   Visibility: 10mi
Dew Point: 47°   Wind: 3mph
Humidity: 93%   Direction: 50°NE
Pressure: 30.06"   Gusts: NA
Location:  40.85°N, 121.96°W
Report Text: KRDD 210953Z AUTO 05003KT 10SM CLR 09/08 A3006 RMK AO2 SLP176 T00940083
Loading
Personal Weather Stations






























Interactive Weather Map
Tropical Storm Tracking
New forecast layout! Learn more

10-Day Weather Forecast

Advertisements
Track Severe Weather on mobile